Time;durP1;ratioP1;P1;durP2;ratioP2;P2;SDS_P1;SDS_P2;PMS_P1;PMS_P2;Temp;Humidity;BMP_temperature;BMP_pressure;BME280_temperature;BME280_humidity;BME280_pressure;Samples;Min_cycle;Max_cycle;Signal;HPM_P1;HPM_P2
2022/10/25 00:01:17;;;;;;;2.00;1.33;;;15.50;99.90;;;;;;4978034;28;20496;-70
2022/10/25 00:03:42;;;;;;;2.97;1.50;;;15.50;99.90;;;;;;4974085;28;20197;-71
2022/10/25 00:06:12;;;;;;;2.20;1.50;;;15.50;99.90;;;;;;4976913;28;20487;-71
2022/10/25 00:08:37;;;;;;;3.50;1.60;;;15.40;99.90;;;;;;4977536;28;20580;-71
2022/10/25 00:11:04;;;;;;;3.80;1.60;;;15.50;99.90;;;;;;4978247;28;20456;-71
2022/10/25 00:13:30;;;;;;;3.50;1.50;;;15.60;99.90;;;;;;4977313;28;20271;-71
2022/10/25 00:15:55;;;;;;;1.83;1.33;;;15.50;99.90;;;;;;4977675;28;20470;-71
2022/10/25 00:18:21;;;;;;;2.10;1.50;;;15.60;99.90;;;;;;4986682;28;20473;-71
2022/10/25 00:20:47;;;;;;;2.70;1.60;;;15.70;99.90;;;;;;4988313;28;20260;-70
2022/10/25 00:23:13;;;;;;;3.23;1.53;;;15.70;99.90;;;;;;4978336;28;20551;-72
2022/10/25 00:25:38;;;;;;;2.10;1.50;;;15.60;99.90;;;;;;4981300;28;20181;-71
2022/10/25 00:28:04;;;;;;;6.33;2.20;;;15.60;99.90;;;;;;4980940;28;20436;-72
2022/10/25 00:30:30;;;;;;;5.90;1.30;;;15.60;99.90;;;;;;4979969;28;20614;-71
2022/10/25 00:32:56;;;;;;;3.97;1.70;;;15.50;99.90;;;;;;4975131;28;20237;-71
2022/10/25 00:35:22;;;;;;;2.80;1.93;;;15.50;99.90;;;;;;4977234;28;20198;-71
2022/10/25 00:37:48;;;;;;;4.50;1.70;;;15.60;99.90;;;;;;4978418;28;20480;-72
2022/10/25 00:40:14;;;;;;;4.20;1.70;;;15.60;99.90;;;;;;4983098;28;20219;-71
2022/10/25 00:42:40;;;;;;;3.50;1.63;;;15.60;99.90;;;;;;4978853;28;20441;-71
2022/10/25 00:45:19;;;;;;;3.07;1.37;;;15.70;99.90;;;;;;4976290;28;20192;-71
2022/10/25 00:47:53;;;;;;;2.20;1.50;;;15.60;99.90;;;;;;4980433;28;20552;-71
2022/10/25 00:50:26;;;;;;;2.07;1.33;;;15.50;99.90;;;;;;4983940;28;20449;-71
2022/10/25 00:52:55;;;;;;;4.40;1.57;;;15.50;99.90;;;;;;4987027;28;20444;-71
2022/10/25 00:55:24;;;;;;;3.60;1.40;;;15.60;99.90;;;;;;4986301;28;20963;-71
2022/10/25 00:57:59;;;;;;;3.20;1.60;;;15.60;99.90;;;;;;4991715;28;20666;-71
2022/10/25 01:00:25;;;;;;;4.47;2.00;;;15.50;99.90;;;;;;4981803;28;20478;-71
2022/10/25 01:02:51;;;;;;;4.47;1.50;;;15.50;99.90;;;;;;4985549;28;20437;-72
2022/10/25 01:05:17;;;;;;;5.80;1.70;;;15.60;99.90;;;;;;4980127;28;20208;-71
2022/10/25 01:07:43;;;;;;;2.37;1.50;;;15.60;99.90;;;;;;4979245;28;21720;-71
2022/10/25 01:10:09;;;;;;;3.40;1.80;;;15.70;99.90;;;;;;4971598;28;20440;-71
2022/10/25 01:12:35;;;;;;;2.83;1.77;;;15.60;99.90;;;;;;4974542;28;20444;-72
2022/10/25 01:15:02;;;;;;;3.67;2.33;;;15.70;99.90;;;;;;4976872;28;20783;-71
2022/10/25 01:17:40;;;;;;;2.43;1.77;;;15.70;99.90;;;;;;4984086;28;20295;-71
2022/10/25 01:20:31;;;;;;;4.67;2.37;;;15.60;99.90;;;;;;4991306;28;20490;-71
2022/10/25 01:23:05;;;;;;;4.67;2.20;;;15.60;99.90;;;;;;4968157;28;20441;-71
2022/10/25 01:25:54;;;;;;;2.40;1.77;;;15.60;99.90;;;;;;4971901;28;20867;-71
2022/10/25 01:28:28;;;;;;;5.70;2.10;;;15.70;99.90;;;;;;4972756;28;20865;-71
2022/10/25 01:31:06;;;;;;;8.23;2.37;;;15.50;99.90;;;;;;4973020;28;20542;-71
2022/10/25 01:33:50;;;;;;;4.20;2.10;;;15.60;99.90;;;;;;4977339;28;20454;-71
2022/10/25 01:36:29;;;;;;;4.00;2.03;;;15.60;99.90;;;;;;4959252;28;20477;-71
2022/10/25 01:39:02;;;;;;;9.50;2.40;;;15.70;99.90;;;;;;4980580;28;20471;-71
2022/10/25 01:41:52;;;;;;;8.17;2.50;;;15.70;99.90;;;;;;4976648;28;20519;-71
2022/10/25 01:44:30;;;;;;;5.33;2.50;;;15.80;99.90;;;;;;4975317;28;20566;-71
2022/10/25 01:47:03;;;;;;;3.93;2.10;;;15.80;99.90;;;;;;4981034;28;20438;-71
2022/10/25 01:49:58;;;;;;;4.90;2.27;;;15.80;99.90;;;;;;4986562;28;20435;-71
2022/10/25 01:52:24;;;;;;;4.73;2.63;;;15.80;99.90;;;;;;4988366;28;22525;-71
2022/10/25 01:54:50;;;;;;;5.40;2.10;;;15.80;99.90;;;;;;4976394;28;20536;-71
2022/10/25 01:57:15;;;;;;;7.10;3.43;;;15.80;99.90;;;;;;4973820;28;20468;-70
2022/10/25 01:59:59;;;;;;;7.90;2.33;;;15.70;99.90;;;;;;4981189;28;20527;-71
2022/10/25 02:02:58;;;;;;;3.10;2.10;;;15.80;99.90;;;;;;4979969;28;20182;-71
2022/10/25 02:05:36;;;;;;;7.50;2.90;;;15.80;99.90;;;;;;4981261;28;20587;-71
2022/10/25 02:08:17;;;;;;;6.67;2.87;;;15.80;99.90;;;;;;4979699;28;20504;-71
2022/10/25 02:10:45;;;;;;;11.60;2.60;;;15.80;99.90;;;;;;4981463;28;20490;-71
2022/10/25 02:13:46;;;;;;;6.53;3.10;;;15.90;99.90;;;;;;4974012;28;20444;-71
2022/10/25 02:16:19;;;;;;;6.20;2.70;;;15.90;99.90;;;;;;4958265;28;21289;-71
2022/10/25 02:18:48;;;;;;;3.43;2.60;;;15.90;99.90;;;;;;4981123;28;20425;-70
2022/10/25 02:21:16;;;;;;;8.27;3.33;;;15.90;99.90;;;;;;4982961;28;20449;-72
2022/10/25 02:23:43;;;;;;;4.20;2.60;;;15.80;99.90;;;;;;4985033;28;20437;-70
2022/10/25 02:26:09;;;;;;;4.93;2.30;;;15.90;99.90;;;;;;4976668;28;20441;-70
2022/10/25 02:28:38;;;;;;;5.20;2.47;;;15.80;99.90;;;;;;4971888;28;20642;-70
2022/10/25 02:31:06;;;;;;;8.70;2.60;;;15.80;99.90;;;;;;4980123;28;20556;-70
2022/10/25 02:33:32;;;;;;;7.70;2.70;;;15.80;99.90;;;;;;4977141;28;20791;-70
2022/10/25 02:36:27;;;;;;;5.73;2.77;;;15.80;99.90;;;;;;4986995;28;20535;-70
2022/10/25 02:38:53;;;;;;;2.50;2.30;;;15.70;99.90;;;;;;4963591;28;20445;-70
2022/10/25 02:41:20;;;;;;;3.83;2.40;;;15.80;99.90;;;;;;4977567;28;20457;-70
2022/10/25 02:47:08;;;;;;;5.90;2.47;;;15.70;99.90;;;;;;4978483;28;21627;-70
2022/10/25 02:49:33;;;;;;;7.13;2.87;;;15.70;99.90;;;;;;4986035;28;20441;-70
2022/10/25 02:51:59;;;;;;;3.73;2.50;;;15.70;99.90;;;;;;4985906;28;20260;-70
2022/10/25 02:54:24;;;;;;;5.90;3.73;;;15.70;99.90;;;;;;4984679;28;20198;-70
2022/10/25 02:56:51;;;;;;;5.03;2.60;;;15.80;99.90;;;;;;4979622;28;20281;-70
2022/10/25 02:59:18;;;;;;;6.90;2.50;;;15.70;99.90;;;;;;4987556;28;20717;-70
2022/10/25 03:01:44;;;;;;;11.50;2.80;;;15.80;99.90;;;;;;4985133;28;20452;-70
2022/10/25 03:04:09;;;;;;;9.00;2.80;;;15.80;99.90;;;;;;4984505;28;20437;-70
2022/10/25 03:06:35;;;;;;;5.07;3.00;;;15.80;99.90;;;;;;4982068;28;21123;-70
2022/10/25 03:09:00;;;;;;;3.80;2.60;;;15.80;99.90;;;;;;4983781;28;20208;-70
2022/10/25 03:11:26;;;;;;;8.80;2.90;;;15.80;99.90;;;;;;4982361;28;20201;-72
2022/10/25 03:13:51;;;;;;;5.93;3.17;;;15.80;99.90;;;;;;4985728;28;20243;-72
2022/10/25 03:16:17;;;;;;;8.93;3.20;;;15.80;99.90;;;;;;4990563;28;20389;-72
2022/10/25 03:18:43;;;;;;;5.10;2.77;;;15.90;99.90;;;;;;4987973;28;20220;-72
2022/10/25 03:21:08;;;;;;;4.27;2.47;;;15.80;99.90;;;;;;4984125;28;20205;-74
2022/10/25 03:23:34;;;;;;;7.20;3.03;;;15.80;99.90;;;;;;4984820;28;20573;-72
2022/10/25 03:26:00;;;;;;;3.33;2.80;;;15.80;99.90;;;;;;4984984;28;20639;-72
2022/10/25 03:28:27;;;;;;;6.50;3.40;;;15.70;99.90;;;;;;4980520;28;20185;-71
2022/10/25 03:30:54;;;;;;;5.80;2.37;;;15.80;99.90;;;;;;4983005;28;20460;-72
2022/10/25 03:33:20;;;;;;;5.20;2.60;;;15.80;99.90;;;;;;4974370;28;20473;-72
2022/10/25 03:35:50;;;;;;;5.03;2.70;;;15.90;99.90;;;;;;4975938;28;20480;-72
2022/10/25 03:38:15;;;;;;;5.10;2.80;;;15.80;99.90;;;;;;4977660;28;20209;-72
2022/10/25 03:40:41;;;;;;;10.10;3.20;;;15.90;99.90;;;;;;4978916;28;20484;-71
2022/10/25 03:43:06;;;;;;;7.17;2.80;;;15.80;99.90;;;;;;4976047;28;20800;-72
2022/10/25 03:45:32;;;;;;;7.50;3.60;;;15.80;99.90;;;;;;4979679;28;20559;-72
2022/10/25 03:47:58;;;;;;;6.13;2.80;;;15.90;99.90;;;;;;4982753;28;20212;-72
2022/10/25 03:50:23;;;;;;;4.70;2.73;;;15.80;99.90;;;;;;4978039;28;20232;-72
2022/10/25 03:52:49;;;;;;;7.70;3.67;;;15.80;99.90;;;;;;4980010;28;20186;-72
2022/10/25 03:55:14;;;;;;;5.57;2.80;;;15.80;99.90;;;;;;4979296;28;20190;-72
2022/10/25 03:57:40;;;;;;;3.03;2.43;;;15.80;99.90;;;;;;4977828;28;20317;-72
2022/10/25 04:00:06;;;;;;;3.60;2.73;;;15.80;99.90;;;;;;4973505;28;20598;-71
2022/10/25 04:02:32;;;;;;;4.37;2.40;;;15.80;99.90;;;;;;4978722;28;20190;-72
2022/10/25 04:04:57;;;;;;;6.10;2.73;;;15.70;99.90;;;;;;4975544;28;20437;-72
2022/10/25 04:07:23;;;;;;;4.40;2.40;;;15.70;99.90;;;;;;4975220;28;20182;-72
2022/10/25 04:09:48;;;;;;;7.50;2.90;;;15.70;99.90;;;;;;4973056;28;20330;-72
2022/10/25 04:12:14;;;;;;;8.10;3.20;;;15.70;99.90;;;;;;4975224;28;20233;-71
2022/10/25 04:14:40;;;;;;;7.07;2.30;;;15.70;99.90;;;;;;4969965;28;20198;-71
2022/10/25 04:17:05;;;;;;;4.63;2.83;;;15.60;99.90;;;;;;4983196;28;20714;-71
2022/10/25 04:19:31;;;;;;;12.40;2.77;;;15.60;99.90;;;;;;4979305;28;20188;-71
2022/10/25 04:21:56;;;;;;;5.97;2.63;;;15.60;99.90;;;;;;4981508;28;20186;-71
2022/10/25 04:24:22;;;;;;;6.30;3.17;;;15.60;99.90;;;;;;4961388;28;20178;-70
2022/10/25 04:26:48;;;;;;;5.47;2.50;;;15.60;99.90;;;;;;4973894;28;20221;-71
2022/10/25 04:29:14;;;;;;;4.13;2.30;;;15.60;99.90;;;;;;4977380;28;20284;-71
2022/10/25 04:31:40;;;;;;;6.77;3.47;;;15.60;99.90;;;;;;4981234;28;20209;-70
2022/10/25 04:34:06;;;;;;;6.77;2.80;;;15.60;99.90;;;;;;4978405;28;20804;-71
2022/10/25 04:36:31;;;;;;;4.80;2.83;;;15.60;99.90;;;;;;4978675;28;20209;-72
2022/10/25 04:38:57;;;;;;;3.50;2.60;;;15.60;99.90;;;;;;4979558;28;20333;-72
2022/10/25 04:41:23;;;;;;;5.23;2.20;;;15.60;99.90;;;;;;4978587;28;20198;-72
2022/10/25 04:43:50;;;;;;;6.70;3.20;;;15.60;99.90;;;;;;4977087;28;20178;-72
2022/10/25 04:46:16;;;;;;;4.87;3.20;;;15.60;99.90;;;;;;4969251;28;20772;-72
2022/10/25 04:48:42;;;;;;;4.27;2.70;;;15.60;99.90;;;;;;4980362;28;20465;-71
2022/10/25 04:51:09;;;;;;;9.70;2.73;;;15.60;99.90;;;;;;4983425;28;20201;-71
2022/10/25 04:53:34;;;;;;;7.00;3.03;;;15.60;99.90;;;;;;4980214;28;20432;-71
2022/10/25 04:56:09;;;;;;;5.57;3.20;;;15.70;99.90;;;;;;4990432;28;20451;-71
2022/10/25 04:58:35;;;;;;;6.43;2.50;;;15.70;99.90;;;;;;4987955;28;21101;-72
2022/10/25 05:01:06;;;;;;;4.30;2.50;;;15.70;99.90;;;;;;4978950;28;20478;-71
2022/10/25 05:03:32;;;;;;;6.10;3.80;;;15.70;99.90;;;;;;4968412;28;21009;-71
2022/10/25 05:06:06;;;;;;;5.33;3.10;;;15.60;99.90;;;;;;4977490;28;20521;-71
2022/10/25 05:08:32;;;;;;;5.10;2.63;;;15.60;99.90;;;;;;4970624;28;20183;-72
2022/10/25 05:10:57;;;;;;;3.93;3.07;;;15.60;99.90;;;;;;4954452;28;20918;-70
2022/10/25 05:13:23;;;;;;;4.10;2.90;;;15.70;99.90;;;;;;4975445;28;20186;-70
2022/10/25 05:15:56;;;;;;;7.53;2.80;;;15.60;99.90;;;;;;4975432;28;20253;-71
2022/10/25 05:18:22;;;;;;;3.60;2.27;;;15.60;99.90;;;;;;4978736;28;20190;-72
2022/10/25 05:20:53;;;;;;;7.90;2.27;;;15.60;99.90;;;;;;4979873;28;20993;-72
2022/10/25 05:23:18;;;;;;;5.30;2.60;;;15.60;99.90;;;;;;4985252;28;20429;-71
2022/10/25 05:25:44;;;;;;;6.90;3.03;;;15.60;99.90;;;;;;4979321;28;20809;-72
2022/10/25 05:28:09;;;;;;;3.80;2.50;;;15.60;99.90;;;;;;4983947;28;20244;-71
2022/10/25 05:30:40;;;;;;;5.30;2.60;;;15.60;99.90;;;;;;4971459;28;20468;-71
2022/10/25 05:33:05;;;;;;;5.83;3.00;;;15.70;99.90;;;;;;4975484;28;20569;-70
2022/10/25 05:35:31;;;;;;;8.40;3.37;;;15.70;99.90;;;;;;4972184;28;20445;-70
2022/10/25 05:37:57;;;;;;;4.80;2.70;;;15.70;99.90;;;;;;4975778;28;20240;-71
2022/10/25 05:40:22;;;;;;;3.80;2.53;;;15.60;99.90;;;;;;4977591;28;20468;-69
2022/10/25 05:42:48;;;;;;;3.87;2.33;;;15.70;99.90;;;;;;4980684;28;20183;-70
2022/10/25 05:45:13;;;;;;;5.47;3.00;;;15.70;99.90;;;;;;4981689;28;20180;-71
2022/10/25 05:47:39;;;;;;;6.10;2.90;;;15.70;99.90;;;;;;4976718;28;20747;-70
2022/10/25 05:50:05;;;;;;;5.40;3.07;;;15.70;99.90;;;;;;4977871;28;20586;-70
2022/10/25 05:52:30;;;;;;;4.33;2.83;;;15.70;99.90;;;;;;4973684;28;20195;-71
2022/10/25 05:54:56;;;;;;;6.07;3.00;;;15.70;99.90;;;;;;4982645;28;20432;-72
2022/10/25 05:57:21;;;;;;;5.63;2.70;;;15.80;99.90;;;;;;4990546;28;20256;-72
2022/10/25 05:59:47;;;;;;;5.57;3.27;;;15.80;99.90;;;;;;4982559;28;20292;-70
2022/10/25 06:02:12;;;;;;;5.10;2.90;;;15.70;99.90;;;;;;4978812;28;20194;-72
2022/10/25 06:04:38;;;;;;;5.40;2.77;;;15.70;99.90;;;;;;4986219;28;20181;-72
2022/10/25 06:07:04;;;;;;;6.30;3.13;;;15.70;99.90;;;;;;4976523;28;20572;-72
2022/10/25 06:09:29;;;;;;;5.17;2.60;;;15.70;99.90;;;;;;4982061;28;20206;-72
2022/10/25 06:11:55;;;;;;;5.23;2.50;;;15.70;99.90;;;;;;4977199;28;20205;-67
2022/10/25 06:14:20;;;;;;;8.90;3.43;;;15.70;99.90;;;;;;4980723;28;20228;-70
2022/10/25 06:16:46;;;;;;;3.33;2.63;;;15.60;99.90;;;;;;4982183;28;20542;-70
2022/10/25 06:19:11;;;;;;;8.70;3.30;;;15.60;99.90;;;;;;4973610;28;20966;-71
2022/10/25 06:21:37;;;;;;;3.80;2.60;;;15.80;99.90;;;;;;4969288;28;20704;-71
2022/10/25 06:24:03;;;;;;;4.13;2.80;;;15.70;99.90;;;;;;4975183;28;20257;-71
2022/10/25 06:26:29;;;;;;;7.17;2.63;;;15.80;99.90;;;;;;4982819;28;20182;-70
2022/10/25 06:29:00;;;;;;;8.10;3.10;;;15.70;99.90;;;;;;4980198;28;20429;-71
2022/10/25 06:31:26;;;;;;;5.53;2.67;;;15.70;99.90;;;;;;4989136;28;20441;-70
2022/10/25 06:33:52;;;;;;;7.83;3.00;;;15.60;99.90;;;;;;4974849;28;20440;-70
2022/10/25 06:36:20;;;;;;;4.73;2.43;;;15.60;99.90;;;;;;4977653;28;20874;-70
2022/10/25 06:38:46;;;;;;;8.23;2.80;;;15.60;99.90;;;;;;4979397;28;20829;-70
2022/10/25 06:41:18;;;;;;;3.90;2.70;;;15.60;99.90;;;;;;4985937;28;20537;-70
2022/10/25 06:43:43;;;;;;;4.37;2.93;;;15.50;99.90;;;;;;4975998;28;20814;-71
2022/10/25 06:46:27;;;;;;;4.30;2.73;;;15.50;99.90;;;;;;4978261;28;20418;-72
2022/10/25 06:48:55;;;;;;;4.03;2.80;;;15.50;99.90;;;;;;4979053;28;20354;-71
2022/10/25 06:51:22;;;;;;;4.73;2.63;;;15.50;99.90;;;;;;4977629;28;20465;-72
2022/10/25 06:53:59;;;;;;;6.83;2.70;;;15.40;99.90;;;;;;4979772;28;20468;-72
2022/10/25 06:56:26;;;;;;;12.80;3.70;;;15.50;99.90;;;;;;4970409;28;20476;-72
2022/10/25 06:58:52;;;;;;;6.30;2.40;;;15.50;99.90;;;;;;4974010;28;20434;-72
2022/10/25 07:01:19;;;;;;;4.53;2.60;;;15.50;99.90;;;;;;4970017;28;20473;-73
2022/10/25 07:03:46;;;;;;;5.30;2.70;;;15.40;99.90;;;;;;4977226;28;20432;-72
2022/10/25 07:06:16;;;;;;;7.90;2.83;;;15.40;99.90;;;;;;4970457;28;20446;-72
2022/10/25 07:08:44;;;;;;;5.40;3.17;;;15.40;99.90;;;;;;4965076;28;20445;-70
2022/10/25 07:11:14;;;;;;;8.50;3.10;;;15.30;99.90;;;;;;4966002;28;20946;-73
2022/10/25 07:13:40;;;;;;;3.73;2.70;;;15.30;99.90;;;;;;4969844;28;20449;-72
2022/10/25 07:16:11;;;;;;;4.67;2.87;;;15.30;99.90;;;;;;4972363;28;20441;-72
2022/10/25 07:18:37;;;;;;;6.60;2.60;;;15.40;99.90;;;;;;4985011;28;20547;-73
2022/10/25 07:21:06;;;;;;;5.53;2.93;;;15.40;99.90;;;;;;4976832;28;20547;-73
2022/10/25 07:23:32;;;;;;;3.77;2.50;;;15.40;99.90;;;;;;4973610;28;20175;-73
2022/10/25 07:25:58;;;;;;;5.13;2.87;;;15.40;99.90;;;;;;4970731;28;20773;-73
2022/10/25 07:28:24;;;;;;;5.93;3.03;;;15.50;99.90;;;;;;4966437;28;20456;-72
2022/10/25 07:30:50;;;;;;;13.93;3.10;;;15.40;99.90;;;;;;4967879;28;20501;-72
2022/10/25 07:33:17;;;;;;;4.93;2.20;;;15.50;99.90;;;;;;4978040;28;20457;-72
2022/10/25 07:35:48;;;;;;;6.63;2.53;;;15.40;99.90;;;;;;4983042;28;20530;-72
2022/10/25 07:38:14;;;;;;;4.30;2.60;;;15.50;99.90;;;;;;4969250;28;20508;-73
2022/10/25 07:40:40;;;;;;;7.97;2.73;;;15.60;99.90;;;;;;4969845;28;20468;-71
2022/10/25 07:43:06;;;;;;;5.87;2.70;;;15.50;99.90;;;;;;4964920;28;20498;-72
2022/10/25 07:45:32;;;;;;;3.73;2.47;;;15.50;99.90;;;;;;4968982;28;20438;-70
2022/10/25 07:47:58;;;;;;;6.07;2.50;;;15.60;99.90;;;;;;4969339;28;20868;-72
2022/10/25 07:50:23;;;;;;;9.33;2.60;;;15.70;99.90;;;;;;4970316;28;20379;-71
2022/10/25 07:52:49;;;;;;;6.13;3.20;;;15.60;99.90;;;;;;4957407;28;20296;-72
2022/10/25 07:55:14;;;;;;;7.63;3.80;;;15.60;99.90;;;;;;4973439;28;20228;-71
2022/10/25 07:57:40;;;;;;;6.33;2.33;;;15.70;99.90;;;;;;4970955;28;20973;-71
2022/10/25 08:00:07;;;;;;;8.43;2.90;;;15.70;99.90;;;;;;4968943;28;20216;-72
2022/10/25 08:02:33;;;;;;;6.60;2.63;;;15.60;99.90;;;;;;4974241;28;20198;-74
2022/10/25 08:04:59;;;;;;;3.70;2.50;;;15.60;99.90;;;;;;4981068;28;20444;-71
2022/10/25 08:07:24;;;;;;;7.40;2.93;;;15.70;99.90;;;;;;4963961;28;20198;-72
2022/10/25 08:09:50;;;;;;;7.20;2.70;;;15.70;99.90;;;;;;4971395;28;20213;-72
2022/10/25 08:12:16;;;;;;;6.43;2.77;;;15.70;99.90;;;;;;4974160;28;20217;-72
2022/10/25 08:14:41;;;;;;;4.87;2.87;;;15.80;99.90;;;;;;4974241;28;20229;-73
2022/10/25 08:17:07;;;;;;;3.67;2.50;;;15.90;99.90;;;;;;4974171;28;20214;-73
2022/10/25 08:19:32;;;;;;;4.83;2.50;;;15.90;99.90;;;;;;4977515;28;20718;-74
2022/10/25 08:21:58;;;;;;;6.40;2.50;;;16.00;99.90;;;;;;4972643;28;20190;-73
2022/10/25 08:24:24;;;;;;;5.70;2.57;;;16.00;99.90;;;;;;4976128;28;20190;-72
2022/10/25 08:26:50;;;;;;;5.07;2.03;;;16.10;99.90;;;;;;4969822;28;20482;-74
2022/10/25 08:29:16;;;;;;;4.20;2.67;;;16.10;99.90;;;;;;4965253;28;20476;-73
2022/10/25 08:31:41;;;;;;;5.03;2.60;;;16.20;99.90;;;;;;4971091;28;20203;-74
2022/10/25 08:34:07;;;;;;;4.70;2.57;;;16.20;99.90;;;;;;4969040;28;20312;-72
2022/10/25 08:36:33;;;;;;;16.00;4.17;;;16.30;99.90;;;;;;4968993;28;20562;-72
2022/10/25 08:38:58;;;;;;;5.57;2.60;;;16.40;99.90;;;;;;4955028;28;20648;-71
2022/10/25 08:41:46;;;;;;;4.43;2.77;;;16.40;99.90;;;;;;4972511;28;20482;-71
2022/10/25 08:44:23;;;;;;;3.97;2.93;;;16.40;99.90;;;;;;4972898;28;20191;-71
2022/10/25 08:46:56;;;;;;;6.23;2.57;;;16.50;99.90;;;;;;4977282;28;21069;-72
2022/10/25 08:49:41;;;;;;;6.80;2.77;;;16.50;99.90;;;;;;4968361;28;20441;-70
2022/10/25 08:52:17;;;;;;;4.13;2.27;;;16.70;99.90;;;;;;4978629;28;20432;-71
2022/10/25 08:54:43;;;;;;;6.97;2.50;;;16.70;99.90;;;;;;4969122;28;21364;-71
2022/10/25 08:57:22;;;;;;;3.17;2.37;;;16.70;99.90;;;;;;4972388;28;20476;-71
2022/10/25 08:59:54;;;;;;;6.23;2.57;;;16.80;99.90;;;;;;4973849;28;20473;-72
2022/10/25 09:02:29;;;;;;;6.43;2.43;;;16.80;99.90;;;;;;4974108;28;20815;-72
2022/10/25 09:04:54;;;;;;;5.10;2.50;;;16.90;99.90;;;;;;4975639;28;20483;-72
2022/10/25 09:07:38;;;;;;;5.27;2.30;;;16.90;99.90;;;;;;4974662;28;20918;-72
2022/10/25 09:10:18;;;;;;;7.30;2.60;;;16.90;99.90;;;;;;4970418;28;20209;-72
2022/10/25 09:13:11;;;;;;;5.70;2.80;;;17.10;99.90;;;;;;4972057;28;20445;-72
2022/10/25 09:15:55;;;;;;;4.90;2.00;;;17.10;99.90;;;;;;4984391;28;20444;-72
2022/10/25 09:18:31;;;;;;;9.03;2.20;;;17.10;99.90;;;;;;4973800;28;20585;-71
2022/10/25 09:20:59;;;;;;;5.33;2.37;;;17.10;99.90;;;;;;4976845;28;20455;-72
2022/10/25 09:23:25;;;;;;;4.00;2.30;;;17.10;99.90;;;;;;4981690;28;20490;-71
2022/10/25 09:26:26;;;;;;;9.23;2.13;;;17.30;99.90;;;;;;4967152;28;20445;-72
2022/10/25 09:29:05;;;;;;;3.73;2.10;;;17.30;99.90;;;;;;4973502;28;20204;-72
2022/10/25 09:31:38;;;;;;;5.47;2.13;;;17.30;99.90;;;;;;4975254;28;20453;-71
2022/10/25 09:34:07;;;;;;;8.13;2.50;;;17.40;99.90;;;;;;4974623;28;20445;-71
2022/10/25 09:36:41;;;;;;;6.53;2.40;;;17.40;99.90;;;;;;4964028;28;20919;-72
2022/10/25 09:39:41;;;;;;;4.03;2.10;;;17.30;99.90;;;;;;4973471;28;20481;-71
2022/10/25 09:42:35;;;;;;;4.90;2.20;;;17.50;99.90;;;;;;4933870;28;20437;-72
2022/10/25 09:45:07;;;;;;;5.60;2.23;;;17.50;99.90;;;;;;4969502;28;21099;-69
2022/10/25 09:47:51;;;;;;;5.77;2.40;;;17.60;99.90;;;;;;4974863;28;20977;-70
2022/10/25 09:50:33;;;;;;;7.13;2.47;;;17.70;99.90;;;;;;4972688;28;21082;-72
2022/10/25 09:53:12;;;;;;;8.73;2.37;;;17.80;99.90;;;;;;4974479;28;20882;-70
2022/10/25 09:55:59;;;;;;;8.50;3.67;;;17.90;99.90;;;;;;4980250;28;20441;-72
2022/10/25 09:58:30;;;;;;;10.90;2.37;;;18.00;99.90;;;;;;4977117;28;20451;-72
2022/10/25 10:01:16;;;;;;;7.03;2.77;;;18.00;99.90;;;;;;4976171;28;22047;-72
2022/10/25 10:03:42;;;;;;;5.60;2.80;;;18.00;99.90;;;;;;4965583;28;20443;-72
2022/10/25 10:06:34;;;;;;;10.43;2.47;;;18.20;99.90;;;;;;4971052;28;20437;-71
2022/10/25 10:09:05;;;;;;;6.23;2.30;;;18.30;99.90;;;;;;4968147;28;20793;-72
2022/10/25 10:11:32;;;;;;;4.50;2.00;;;18.30;99.90;;;;;;4973370;28;20489;-71
2022/10/25 10:14:06;;;;;;;16.40;2.77;;;18.40;99.90;;;;;;4980582;28;20500;-74
2022/10/25 10:16:40;;;;;;;6.50;2.10;;;18.40;99.90;;;;;;4986119;28;20477;-72
2022/10/25 10:19:21;;;;;;;4.90;2.10;;;18.50;99.90;;;;;;4973024;28;20443;-72
2022/10/25 10:22:10;;;;;;;5.73;2.30;;;18.40;99.90;;;;;;4979514;28;20503;-72
2022/10/25 10:24:42;;;;;;;8.97;2.43;;;18.40;99.90;;;;;;4978354;28;20456;-72
2022/10/25 10:27:24;;;;;;;3.77;2.13;;;18.40;99.90;;;;;;4967904;28;20533;-73
2022/10/25 10:30:04;;;;;;;7.47;2.40;;;18.40;99.90;;;;;;4980084;28;21059;-70
2022/10/25 10:32:35;;;;;;;7.13;2.33;;;18.50;99.90;;;;;;4962605;28;20436;-72
2022/10/25 10:35:04;;;;;;;5.97;2.47;;;18.50;99.90;;;;;;4977733;28;20440;-72
2022/10/25 10:37:32;;;;;;;5.83;2.33;;;18.60;99.90;;;;;;4973313;28;20473;-72
2022/10/25 10:40:21;;;;;;;8.00;2.70;;;18.70;99.90;;;;;;4980320;28;20464;-73
2022/10/25 10:42:46;;;;;;;7.03;3.07;;;18.80;99.90;;;;;;4978399;28;20517;-72
2022/10/25 10:45:16;;;;;;;5.97;2.70;;;19.00;99.90;;;;;;4978867;28;20967;-71
2022/10/25 10:47:47;;;;;;;7.10;3.00;;;19.10;99.90;;;;;;4975373;28;20189;-71
2022/10/25 10:50:22;;;;;;;5.60;2.50;;;19.20;99.90;;;;;;4979577;28;20492;-70
2022/10/25 10:52:53;;;;;;;4.47;2.03;;;19.30;99.90;;;;;;4981973;28;20856;-71
2022/10/25 10:55:45;;;;;;;5.27;2.20;;;19.30;99.90;;;;;;4976112;28;20521;-73
2022/10/25 10:58:27;;;;;;;12.53;2.40;;;19.40;99.90;;;;;;4971461;28;20483;-72
2022/10/25 11:01:00;;;;;;;6.97;2.20;;;19.50;99.90;;;;;;4980550;28;20504;-71
2022/10/25 11:03:38;;;;;;;5.93;2.30;;;19.40;99.90;;;;;;4979881;28;21161;-73
2022/10/25 11:06:26;;;;;;;6.20;2.00;;;19.50;99.90;;;;;;4984305;28;20434;-71
2022/10/25 11:09:21;;;;;;;8.73;2.00;;;19.60;99.90;;;;;;4977970;28;20433;-70
2022/10/25 11:12:06;;;;;;;8.33;2.73;;;19.70;99.90;;;;;;4977473;28;20524;-69
2022/10/25 11:14:32;;;;;;;5.83;3.30;;;19.90;99.90;;;;;;4979689;28;20438;-70
2022/10/25 11:17:06;;;;;;;9.33;2.03;;;19.80;99.90;;;;;;4981076;28;20461;-70
2022/10/25 11:19:42;;;;;;;5.83;2.30;;;19.80;99.90;;;;;;4973177;28;20190;-70
2022/10/25 11:22:35;;;;;;;5.63;2.23;;;19.70;99.90;;;;;;4970203;28;20468;-71
2022/10/25 11:25:15;;;;;;;8.97;3.00;;;19.60;99.90;;;;;;4974136;28;20442;-71
2022/10/25 11:28:24;;;;;;;9.17;2.37;;;19.70;99.90;;;;;;4977013;28;21155;-68
2022/10/25 11:31:13;;;;;;;4.70;2.30;;;19.70;99.90;;;;;;4960271;28;20465;-69
2022/10/25 11:33:42;;;;;;;10.33;2.73;;;19.80;99.90;;;;;;4976720;28;20477;-70
2022/10/25 11:36:17;;;;;;;5.60;2.10;;;19.80;99.90;;;;;;4976655;28;21961;-73
2022/10/25 11:39:16;;;;;;;8.73;2.30;;;19.60;99.90;;;;;;4974018;28;20429;-70
2022/10/25 11:41:52;;;;;;;6.93;3.40;;;19.60;99.90;;;;;;4977097;28;20441;-71
2022/10/25 11:44:55;;;;;;;6.57;2.30;;;19.80;99.90;;;;;;4969183;28;20463;-71
2022/10/25 11:47:43;;;;;;;4.40;2.13;;;19.70;99.90;;;;;;4975668;28;20442;-70
2022/10/25 11:50:27;;;;;;;5.77;2.20;;;19.60;99.90;;;;;;4974232;28;20847;-69
2022/10/25 11:53:11;;;;;;;5.77;2.23;;;19.60;99.90;;;;;;4970189;28;20437;-69
2022/10/25 11:55:47;;;;;;;3.50;1.93;;;19.60;99.90;;;;;;4974925;28;20436;-72
2022/10/25 11:58:58;;;;;;;8.40;2.67;;;19.90;99.90;;;;;;4980419;28;20468;-70
2022/10/25 12:01:51;;;;;;;9.03;2.33;;;20.90;99.90;;;;;;4948620;28;20513;-70
2022/10/25 12:05:02;;;;;;;7.10;2.70;;;21.90;99.90;;;;;;4975138;28;20448;-69
2022/10/25 12:07:50;;;;;;;5.77;2.70;;;22.40;99.90;;;;;;4975921;28;20469;-67
2022/10/25 12:10:40;;;;;;;7.40;2.70;;;23.60;99.90;;;;;;4931416;28;20593;-68
2022/10/25 12:13:31;;;;;;;6.23;2.70;;;24.10;99.90;;;;;;4971400;28;20433;-69
2022/10/25 12:15:58;;;;;;;6.90;2.50;;;24.20;99.90;;;;;;4972828;28;20530;-71
2022/10/25 12:18:38;;;;;;;6.83;2.80;;;24.20;99.90;;;;;;4970144;28;20810;-70
2022/10/25 12:21:05;;;;;;;8.40;3.10;;;24.00;99.90;;;;;;4974655;28;22683;-71
2022/10/25 12:23:39;;;;;;;7.07;2.63;;;23.70;99.90;;;;;;4973973;28;20692;-71
2022/10/25 12:26:13;;;;;;;4.33;2.50;;;23.30;99.90;;;;;;4968809;28;20823;-72
2022/10/25 12:28:47;;;;;;;10.17;2.50;;;23.40;99.90;;;;;;4976257;28;20433;-72
2022/10/25 12:31:28;;;;;;;4.17;2.20;;;23.70;99.90;;;;;;4972741;28;20553;-70
2022/10/25 12:34:20;;;;;;;4.67;2.77;;;24.00;99.90;;;;;;4968800;28;20441;-70
2022/10/25 12:36:54;;;;;;;8.03;2.30;;;24.30;99.90;;;;;;4970817;28;20564;-70
2022/10/25 12:39:44;;;;;;;5.03;2.43;;;24.60;99.90;;;;;;4970341;28;20441;-70
2022/10/25 12:42:47;;;;;;;4.33;2.63;;;24.80;99.90;;;;;;4957323;28;20449;-70
2022/10/25 12:45:24;;;;;;;7.57;2.70;;;25.30;99.90;;;;;;4965020;28;20808;-70
2022/10/25 12:48:31;;;;;;;4.60;2.50;;;25.30;99.90;;;;;;4973856;28;20432;-71
2022/10/25 12:51:09;;;;;;;7.10;2.63;;;25.60;99.90;;;;;;4935022;28;20449;-72
2022/10/25 12:53:47;;;;;;;6.60;3.07;;;25.70;99.90;;;;;;4971244;28;20440;-72
2022/10/25 12:56:16;;;;;;;5.67;2.37;;;25.80;99.90;;;;;;4965114;28;20492;-72
2022/10/25 12:59:03;;;;;;;5.27;2.67;;;25.70;99.90;;;;;;4970745;28;20441;-72
2022/10/25 13:01:45;;;;;;;4.53;2.20;;;25.70;99.90;;;;;;4958547;28;20473;-72
2022/10/25 13:04:27;;;;;;;4.60;2.40;;;25.60;99.90;;;;;;4969253;28;20430;-71
2022/10/25 13:06:53;;;;;;;5.83;2.50;;;25.60;99.90;;;;;;4966920;28;20437;-72
2022/10/25 13:09:21;;;;;;;4.20;2.30;;;25.50;99.90;;;;;;4964646;28;20516;-71
2022/10/25 13:11:56;;;;;;;4.23;2.40;;;25.40;99.90;;;;;;4967811;28;20484;-73
2022/10/25 13:14:37;;;;;;;6.10;2.47;;;25.60;99.90;;;;;;4968612;28;21142;-73